createdAt,value
2023-08-12T00:02:10.699Z,7.80
2023-08-12T00:04:37.475Z,7.95
2023-08-12T00:07:04.332Z,7.97
2023-08-12T00:09:31.096Z,6.75
2023-08-12T00:11:58.005Z,7.75
2023-08-12T00:14:25.511Z,7.72
2023-08-12T00:16:52.651Z,7.43
2023-08-12T00:19:19.838Z,6.90
2023-08-12T00:21:46.785Z,7.00
2023-08-12T00:24:13.746Z,6.95
2023-08-12T00:26:40.831Z,6.70
2023-08-12T00:29:07.668Z,6.63
2023-08-12T00:31:34.574Z,7.25
2023-08-12T00:34:01.545Z,6.68
2023-08-12T00:36:28.551Z,7.15
2023-08-12T00:38:55.668Z,7.00
2023-08-12T00:41:24.234Z,5.70
2023-08-12T00:43:51.155Z,6.30
2023-08-12T00:46:18.644Z,6.32
2023-08-12T00:48:45.617Z,6.32
2023-08-12T00:51:14.548Z,6.10
2023-08-12T00:53:42.235Z,5.93
2023-08-12T00:56:09.129Z,6.47
2023-08-12T00:58:36.231Z,4.97
2023-08-12T01:01:03.057Z,6.75
2023-08-12T01:03:30.057Z,5.53
2023-08-12T01:05:59.328Z,4.72
2023-08-12T01:08:30.251Z,5.25
2023-08-12T01:11:13.884Z,4.82
2023-08-12T01:13:53.720Z,4.80
2023-08-12T01:16:22.433Z,4.40
2023-08-12T01:18:50.734Z,4.68
2023-08-12T01:21:20.009Z,4.55
2023-08-12T01:23:47.662Z,5.55
2023-08-12T01:26:14.717Z,5.43
2023-08-12T01:28:41.968Z,5.90
2023-08-12T01:31:39.836Z,5.97
2023-08-12T01:34:17.107Z,5.30
2023-08-12T01:36:48.224Z,5.20
2023-08-12T01:39:17.067Z,5.38
2023-08-12T01:41:44.014Z,5.68
2023-08-12T01:44:11.200Z,5.32
2023-08-12T01:46:38.046Z,5.18
2023-08-12T01:49:05.340Z,5.80
2023-08-12T01:51:32.835Z,5.18
2023-08-12T01:54:02.486Z,5.22
2023-08-12T01:56:30.604Z,5.55
2023-08-12T01:58:58.471Z,4.75
2023-08-12T02:01:25.918Z,5.05
2023-08-12T02:03:56.392Z,5.47
2023-08-12T02:06:26.784Z,5.95
2023-08-12T02:08:53.639Z,6.57
2023-08-12T02:11:20.487Z,5.68
2023-08-12T02:13:47.392Z,6.72
2023-08-12T02:16:14.182Z,6.60
2023-08-12T02:18:41.039Z,6.25
2023-08-12T02:21:07.790Z,6.25
2023-08-12T02:23:35.088Z,6.82
2023-08-12T02:26:04.126Z,5.97
2023-08-12T02:28:30.902Z,7.18
2023-08-12T02:30:57.641Z,6.28
2023-08-12T02:33:24.428Z,7.35
2023-08-12T02:35:54.732Z,7.45
2023-08-12T02:38:22.117Z,7.43
2023-08-12T02:40:51.849Z,6.53
2023-08-12T02:43:18.995Z,7.57
2023-08-12T02:45:45.889Z,8.25
2023-08-12T02:48:12.735Z,7.72
2023-08-12T02:50:40.451Z,8.43
2023-08-12T02:53:07.909Z,7.80
2023-08-12T02:55:35.167Z,6.78
2023-08-12T02:58:02.600Z,6.63
2023-08-12T03:00:30.485Z,7.22
2023-08-12T03:02:57.438Z,8.73
2023-08-12T03:05:24.384Z,8.90
2023-08-12T03:07:55.290Z,8.00
2023-08-12T03:10:22.814Z,9.43
2023-08-12T03:12:49.649Z,9.45
2023-08-12T03:15:17.825Z,9.63
2023-08-12T03:17:44.768Z,9.18
2023-08-12T03:20:13.731Z,7.90
2023-08-12T03:22:42.314Z,8.88
2023-08-12T03:25:09.839Z,8.02
2023-08-12T03:27:37.298Z,8.52
2023-08-12T03:30:04.990Z,8.75
2023-08-12T03:32:32.852Z,8.60
2023-08-12T03:35:00.222Z,8.95
2023-08-12T03:37:27.788Z,8.32
2023-08-12T03:39:54.966Z,8.93
2023-08-12T03:42:21.806Z,8.18
2023-08-12T03:44:49.732Z,8.60
2023-08-12T03:47:22.782Z,9.13
2023-08-12T03:49:49.632Z,8.73
2023-08-12T03:52:16.594Z,9.30
2023-08-12T03:54:43.455Z,8.52
2023-08-12T03:57:10.875Z,8.27
2023-08-12T03:59:38.186Z,8.75
2023-08-12T04:02:07.915Z,9.73
2023-08-12T04:04:35.088Z,9.38
2023-08-12T04:07:01.943Z,9.55
2023-08-12T04:09:28.726Z,8.85
2023-08-12T04:11:55.657Z,8.75
2023-08-12T04:14:22.575Z,8.95
2023-08-12T04:16:49.892Z,9.80
2023-08-12T04:19:18.172Z,8.88
2023-08-12T04:21:48.333Z,8.80
2023-08-12T04:24:15.074Z,8.93
2023-08-12T04:26:42.099Z,10.95
2023-08-12T04:29:08.957Z,9.20
2023-08-12T04:31:39.082Z,9.50
2023-08-12T04:34:06.814Z,9.38
2023-08-12T04:36:33.666Z,9.68
2023-08-12T04:39:03.148Z,9.63
2023-08-12T04:41:32.629Z,8.82
2023-08-12T04:44:01.666Z,9.18
2023-08-12T04:46:31.218Z,8.82
2023-08-12T04:48:58.001Z,8.13
2023-08-12T04:51:24.810Z,9.00
2023-08-12T04:53:51.588Z,8.90
2023-08-12T04:56:18.547Z,9.80
2023-08-12T04:58:46.031Z,9.32
2023-08-12T05:01:12.845Z,8.57
2023-08-12T05:03:40.228Z,10.88
2023-08-12T05:06:08.729Z,9.73
2023-08-12T05:08:36.101Z,8.80
2023-08-12T05:11:11.464Z,9.02
2023-08-12T05:13:43.261Z,9.45
2023-08-12T05:16:22.507Z,9.00
2023-08-12T05:18:51.216Z,8.48
2023-08-12T05:21:18.106Z,9.10
2023-08-12T05:23:47.742Z,8.80
2023-08-12T05:26:14.673Z,9.13
2023-08-12T05:28:41.756Z,8.55
2023-08-12T05:31:09.097Z,8.18
2023-08-12T05:33:37.386Z,7.53
2023-08-12T05:36:04.673Z,8.45
2023-08-12T05:38:33.717Z,8.30
2023-08-12T05:41:00.433Z,8.45
2023-08-12T05:43:27.245Z,8.35
2023-08-12T05:45:54.044Z,8.15
2023-08-12T05:48:20.868Z,8.82
2023-08-12T05:50:47.631Z,9.52
2023-08-12T05:53:14.385Z,8.52
2023-08-12T05:55:41.174Z,9.52
2023-08-12T05:58:08.591Z,10.13
2023-08-12T06:00:35.317Z,9.63
2023-08-12T06:03:02.083Z,9.95
2023-08-12T06:05:28.953Z,9.70
2023-08-12T06:07:58.089Z,9.35
2023-08-12T06:10:25.370Z,9.23
2023-08-12T06:12:52.060Z,10.73
2023-08-12T06:15:18.869Z,10.57
2023-08-12T06:17:45.725Z,10.88
2023-08-12T06:20:13.223Z,9.90
2023-08-12T06:22:39.972Z,10.93
2023-08-12T06:25:06.996Z,10.43
2023-08-12T06:27:33.845Z,11.05
2023-08-12T06:30:01.200Z,9.88
2023-08-12T06:32:27.998Z,11.10
2023-08-12T06:34:54.728Z,10.45
2023-08-12T06:37:24.470Z,10.68
2023-08-12T06:39:51.841Z,11.77
2023-08-12T06:42:18.598Z,12.20
2023-08-12T06:44:46.499Z,11.82
2023-08-12T06:47:13.293Z,11.90
2023-08-12T06:49:40.827Z,11.27
2023-08-12T06:52:08.331Z,12.98
2023-08-12T06:54:36.583Z,12.80
2023-08-12T06:57:05.505Z,12.88
2023-08-12T06:59:32.475Z,13.15
2023-08-12T07:01:59.233Z,13.40
2023-08-12T07:04:26.519Z,13.27
2023-08-12T07:06:53.806Z,12.88
2023-08-12T07:09:21.867Z,14.13
2023-08-12T07:11:50.134Z,12.93
2023-08-12T07:14:16.899Z,11.75
2023-08-12T07:16:43.798Z,13.13
2023-08-12T07:19:16.527Z,13.93
2023-08-12T07:21:43.885Z,12.55
2023-08-12T07:24:10.783Z,11.80
2023-08-12T07:26:39.774Z,13.27
2023-08-12T07:29:09.881Z,12.93
2023-08-12T07:31:36.624Z,13.25
2023-08-12T07:34:03.516Z,12.30
2023-08-12T07:36:30.257Z,12.63
2023-08-12T07:38:57.224Z,13.38
2023-08-12T07:41:24.027Z,12.25
2023-08-12T07:43:50.747Z,12.05
2023-08-12T07:46:17.575Z,13.68
2023-08-12T07:48:44.419Z,12.63
2023-08-12T07:51:11.737Z,12.85
2023-08-12T07:53:38.496Z,14.18
2023-08-12T07:56:05.285Z,13.82
2023-08-12T07:58:32.025Z,13.10
2023-08-12T08:00:58.798Z,14.55
2023-08-12T08:03:26.467Z,13.65
2023-08-12T08:05:53.418Z,14.85
2023-08-12T08:08:21.287Z,13.40
2023-08-12T08:10:48.142Z,15.60
2023-08-12T08:13:14.940Z,16.42
2023-08-12T08:15:41.679Z,15.18
2023-08-12T08:18:09.211Z,16.27
2023-08-12T08:20:36.562Z,15.60
2023-08-12T08:23:03.796Z,16.20
2023-08-12T08:25:30.924Z,16.08
2023-08-12T08:27:57.866Z,17.05
2023-08-12T08:30:26.333Z,15.23
2023-08-12T08:32:53.433Z,17.65
2023-08-12T08:35:22.855Z,18.42
2023-08-12T08:37:49.840Z,17.17
2023-08-12T08:40:17.820Z,18.75
2023-08-12T08:42:46.728Z,19.10
2023-08-12T08:45:15.595Z,19.83
2023-08-12T08:47:44.180Z,18.02
2023-08-12T08:50:11.640Z,19.90
2023-08-12T08:52:39.115Z,18.35
2023-08-12T08:55:08.243Z,20.90
2023-08-12T09:00:16.473Z,18.10
2023-08-12T09:02:45.487Z,19.63
2023-08-12T09:05:14.279Z,19.77
2023-08-12T09:07:41.659Z,22.00
2023-08-12T09:10:09.200Z,21.83
2023-08-12T09:12:35.994Z,22.38
2023-08-12T09:15:02.739Z,21.25
2023-08-12T09:17:29.745Z,20.60
2023-08-12T09:19:56.776Z,20.58
2023-08-12T09:22:30.226Z,21.80
2023-08-12T09:24:59.975Z,22.55
2023-08-12T09:27:26.894Z,21.65
2023-08-12T09:29:57.985Z,20.00
2023-08-12T09:32:26.094Z,20.88
2023-08-12T09:34:54.484Z,20.85
2023-08-12T09:37:24.538Z,18.55
2023-08-12T09:39:52.870Z,16.45
2023-08-12T09:42:22.588Z,14.65
2023-08-12T09:44:55.015Z,12.75
2023-08-12T09:47:22.008Z,11.77
2023-08-12T09:49:48.986Z,11.40
2023-08-12T09:52:23.811Z,10.45
2023-08-12T09:55:08.012Z,4.25
2023-08-12T09:57:38.960Z,3.63
2023-08-12T10:00:19.284Z,4.07
2023-08-12T10:02:54.999Z,3.83
2023-08-12T10:05:35.751Z,3.67
2023-08-12T10:08:05.197Z,3.63
2023-08-12T10:10:36.603Z,3.83
2023-08-12T10:13:04.640Z,3.55
2023-08-12T10:15:32.877Z,3.53
2023-08-12T10:18:01.698Z,2.10
2023-08-12T10:20:29.317Z,2.20
2023-08-12T10:22:56.564Z,2.00
2023-08-12T10:25:24.997Z,2.05
2023-08-12T10:28:01.594Z,2.17
2023-08-12T10:30:35.295Z,1.85
2023-08-12T10:33:02.299Z,2.28
2023-08-12T10:35:43.191Z,2.55
2023-08-12T10:38:10.026Z,2.33
2023-08-12T10:40:36.852Z,2.80
2023-08-12T10:43:03.961Z,3.10
2023-08-12T10:46:03.168Z,2.97
2023-08-12T10:48:30.301Z,2.90
2023-08-12T10:51:00.086Z,3.35
2023-08-12T10:53:31.695Z,3.05
2023-08-12T10:56:03.801Z,3.17
2023-08-12T10:58:35.435Z,4.25
2023-08-12T11:01:02.482Z,3.23
2023-08-12T11:03:36.270Z,3.47
2023-08-12T11:06:04.757Z,3.70
2023-08-12T11:08:31.476Z,3.28
2023-08-12T11:10:58.525Z,3.63
2023-08-12T11:13:28.594Z,4.03
2023-08-12T11:16:07.658Z,3.65
2023-08-12T11:18:36.213Z,3.85
2023-08-12T11:21:04.608Z,4.53
2023-08-12T11:23:31.371Z,3.58
2023-08-12T11:25:59.213Z,3.60
2023-08-12T11:28:26.364Z,3.33
2023-08-12T11:30:53.207Z,3.30
2023-08-12T11:33:20.001Z,3.33
2023-08-12T11:35:46.898Z,2.85
2023-08-12T11:38:13.671Z,3.63
2023-08-12T11:40:41.146Z,2.90
2023-08-12T11:43:07.924Z,2.92
2023-08-12T11:45:34.789Z,3.55
2023-08-12T11:48:02.274Z,3.63
2023-08-12T11:50:29.179Z,3.67
2023-08-12T11:52:59.724Z,3.30
2023-08-12T11:55:26.921Z,2.92
2023-08-12T11:57:53.971Z,3.63
2023-08-12T12:00:28.583Z,3.70
2023-08-12T12:02:58.040Z,3.80
2023-08-12T12:05:36.289Z,4.50
2023-08-12T12:08:11.304Z,4.20
2023-08-12T12:10:45.573Z,4.20
2023-08-12T12:13:14.068Z,5.28
2023-08-12T12:15:45.748Z,4.85
2023-08-12T12:18:14.407Z,3.60
2023-08-12T12:20:58.055Z,3.92
2023-08-12T12:23:33.094Z,4.20
2023-08-12T12:26:04.234Z,4.40
2023-08-12T12:28:35.446Z,4.22
2023-08-12T12:31:08.420Z,3.88
2023-08-12T12:33:37.408Z,4.35
2023-08-12T12:36:08.329Z,4.55
2023-08-12T12:38:39.002Z,3.78
2023-08-12T12:41:05.882Z,3.38
2023-08-12T12:43:33.965Z,3.97
2023-08-12T12:46:09.908Z,4.25
2023-08-12T12:48:37.329Z,3.60
2023-08-12T12:51:04.367Z,4.03
2023-08-12T12:53:34.696Z,4.20
2023-08-12T12:56:05.145Z,2.90
2023-08-12T12:58:34.319Z,3.72
2023-08-12T13:01:02.377Z,3.67
2023-08-12T13:03:32.628Z,4.15
2023-08-12T13:06:03.340Z,2.80
2023-08-12T13:08:34.312Z,3.45
2023-08-12T13:11:03.200Z,3.22
2023-08-12T13:13:32.530Z,2.20
2023-08-12T13:16:00.347Z,2.70
2023-08-12T13:18:27.625Z,2.85
2023-08-12T13:21:01.611Z,3.00
2023-08-12T13:23:28.606Z,3.30
2023-08-12T13:25:57.093Z,2.88
2023-08-12T13:28:30.021Z,3.45
2023-08-12T13:30:59.077Z,3.15
2023-08-12T13:33:25.940Z,3.05
2023-08-12T13:35:52.866Z,2.60
2023-08-12T13:38:24.859Z,2.03
2023-08-12T13:40:53.041Z,3.22
2023-08-12T13:43:19.938Z,3.10
2023-08-12T13:45:46.914Z,3.35
2023-08-12T13:48:13.876Z,3.03
2023-08-12T13:50:40.728Z,3.58
2023-08-12T13:53:07.654Z,2.95
2023-08-12T13:55:34.601Z,3.33
2023-08-12T13:58:01.512Z,2.70
2023-08-12T14:00:28.507Z,3.30
2023-08-12T14:02:55.382Z,3.28
2023-08-12T14:05:22.318Z,3.22
2023-08-12T14:07:49.349Z,4.28
2023-08-12T14:10:16.295Z,3.38
2023-08-12T14:12:43.151Z,3.50
2023-08-12T14:15:10.401Z,3.53
2023-08-12T14:17:37.600Z,3.38
2023-08-12T14:20:09.073Z,3.30
2023-08-12T14:22:37.086Z,3.20
2023-08-12T14:25:06.239Z,3.10
2023-08-12T14:27:33.391Z,3.33
2023-08-12T14:30:00.259Z,3.10
2023-08-12T14:32:27.258Z,3.75
2023-08-12T14:34:54.182Z,3.47
2023-08-12T14:37:21.088Z,3.03
2023-08-12T14:39:47.957Z,2.90
2023-08-12T14:42:15.034Z,3.05
2023-08-12T14:44:41.903Z,3.72
2023-08-12T14:47:08.978Z,3.85
2023-08-12T14:49:35.944Z,3.25
2023-08-12T14:52:09.739Z,3.25
2023-08-12T14:54:36.915Z,3.38
2023-08-12T14:57:16.370Z,3.15
2023-08-12T14:59:48.886Z,3.30
2023-08-12T15:02:21.904Z,3.35
2023-08-12T15:04:48.819Z,3.08
2023-08-12T15:07:17.659Z,2.95
2023-08-12T15:10:02.820Z,2.72
2023-08-12T15:12:31.257Z,3.05
2023-08-12T15:14:58.365Z,3.85
2023-08-12T15:17:25.799Z,4.18
2023-08-12T15:19:52.884Z,5.00
2023-08-12T15:22:29.626Z,4.97
2023-08-12T15:24:56.674Z,13.27
2023-08-12T15:27:25.561Z,14.88
2023-08-12T15:29:53.499Z,3.97
2023-08-12T15:32:21.759Z,3.97
2023-08-12T15:34:55.995Z,3.78
2023-08-12T15:37:25.428Z,4.15
2023-08-12T15:39:52.444Z,3.80
2023-08-12T15:42:19.535Z,3.40
2023-08-12T15:44:46.424Z,3.33
2023-08-12T15:47:23.264Z,3.80
2023-08-12T15:49:50.140Z,4.15
2023-08-12T15:52:17.034Z,4.20
2023-08-12T15:54:45.432Z,3.47
2023-08-12T15:57:14.051Z,4.03
2023-08-12T15:59:41.317Z,3.55
2023-08-12T16:02:10.431Z,3.38
2023-08-12T16:04:37.681Z,4.45
2023-08-12T16:07:04.750Z,4.15
2023-08-12T16:09:32.949Z,3.85
2023-08-12T16:11:59.945Z,3.40
2023-08-12T16:14:26.908Z,5.03
2023-08-12T16:16:58.049Z,3.58
2023-08-12T16:19:26.999Z,3.95
2023-08-12T16:21:56.531Z,3.97
2023-08-12T16:24:25.815Z,3.33
2023-08-12T16:27:01.031Z,3.60
2023-08-12T16:29:28.703Z,3.50
2023-08-12T16:32:04.735Z,4.15
2023-08-12T16:34:33.815Z,3.85
2023-08-12T16:37:19.698Z,4.20
2023-08-12T16:39:47.514Z,3.35
2023-08-12T16:42:23.027Z,4.28
2023-08-12T16:44:50.149Z,4.30
2023-08-12T16:47:17.098Z,4.32
2023-08-12T16:49:44.009Z,3.97
2023-08-12T16:52:18.264Z,3.92
2023-08-12T16:54:45.154Z,4.75
2023-08-12T16:57:11.999Z,4.28
2023-08-12T16:59:38.909Z,3.88
2023-08-12T17:02:05.849Z,3.72
2023-08-12T17:04:32.619Z,3.53
2023-08-12T17:06:59.468Z,3.95
2023-08-12T17:09:26.808Z,4.72
2023-08-12T17:11:53.628Z,4.25
2023-08-12T17:14:20.466Z,3.97
2023-08-12T17:16:47.329Z,3.80
2023-08-12T17:19:14.088Z,3.40
2023-08-12T17:21:41.042Z,4.43
2023-08-12T17:24:07.999Z,4.85
2023-08-12T17:26:34.750Z,6.47
2023-08-12T17:29:01.661Z,4.50
2023-08-12T17:31:28.511Z,3.67
2023-08-12T17:33:55.285Z,3.80
2023-08-12T17:36:22.107Z,3.88
2023-08-12T17:38:48.996Z,3.67
2023-08-12T17:41:16.075Z,4.75
2023-08-12T17:43:44.817Z,4.50
2023-08-12T17:46:13.982Z,5.05
2023-08-12T17:48:41.262Z,4.63
2023-08-12T17:51:13.832Z,4.13
2023-08-12T17:53:44.924Z,4.53
2023-08-12T17:56:12.220Z,4.18
2023-08-12T17:58:39.426Z,4.65
2023-08-12T18:01:06.548Z,4.85
2023-08-12T18:03:33.699Z,4.43
2023-08-12T18:06:02.181Z,4.40
2023-08-12T18:08:29.039Z,4.03
2023-08-12T18:10:55.767Z,4.95
2023-08-12T18:13:22.541Z,5.90
2023-08-12T18:15:49.800Z,4.80
2023-08-12T18:18:16.588Z,4.88
2023-08-12T18:20:43.414Z,4.85
2023-08-12T18:23:10.207Z,5.38
2023-08-12T18:25:37.055Z,4.65
2023-08-12T18:28:04.922Z,6.07
2023-08-12T18:30:32.441Z,5.00
2023-08-12T18:32:59.419Z,4.50
2023-08-12T18:35:26.211Z,4.78
2023-08-12T18:37:53.026Z,5.45
2023-08-12T18:40:19.815Z,5.20
2023-08-12T18:42:46.647Z,6.28
2023-08-12T18:45:13.490Z,6.60
2023-08-12T18:47:40.495Z,5.47
2023-08-12T18:50:07.634Z,5.38
2023-08-12T18:52:34.452Z,5.10
2023-08-12T18:55:01.332Z,4.47
2023-08-12T18:57:29.120Z,6.03
2023-08-12T18:59:55.877Z,5.43
2023-08-12T19:02:22.627Z,6.05
2023-08-12T19:04:49.503Z,4.65
2023-08-12T19:07:16.298Z,4.10
2023-08-12T19:09:43.021Z,5.45
2023-08-12T19:12:10.893Z,4.45
2023-08-12T19:14:37.945Z,5.15
2023-08-12T19:17:04.886Z,5.65
2023-08-12T19:19:31.615Z,5.32
2023-08-12T19:21:58.389Z,5.22
2023-08-12T19:24:25.200Z,4.93
2023-08-12T19:26:52.241Z,5.63
2023-08-12T19:29:19.235Z,6.22
2023-08-12T19:31:46.128Z,4.90
2023-08-12T19:34:13.173Z,5.75
2023-08-12T19:36:40.286Z,5.65
2023-08-12T19:39:07.270Z,3.78
2023-08-12T19:41:34.273Z,5.47
2023-08-12T19:44:01.207Z,4.85
2023-08-12T19:46:28.315Z,4.65
2023-08-12T19:48:55.679Z,4.55
2023-08-12T19:51:22.515Z,5.13
2023-08-12T19:53:49.440Z,5.25
2023-08-12T19:56:16.350Z,5.18
2023-08-12T19:58:43.334Z,5.53
2023-08-12T20:01:10.277Z,5.22
2023-08-12T20:03:37.340Z,4.25
2023-08-12T20:06:05.476Z,4.78
2023-08-12T20:08:32.394Z,6.93
2023-08-12T20:10:59.335Z,4.82
2023-08-12T20:13:26.586Z,5.30
2023-08-12T20:15:58.916Z,4.40
2023-08-12T20:18:26.579Z,4.35
2023-08-12T20:20:53.915Z,4.80
2023-08-12T20:23:21.693Z,6.05
2023-08-12T20:25:50.175Z,4.03
2023-08-12T20:28:17.132Z,4.55
2023-08-12T20:30:43.881Z,4.68
2023-08-12T20:33:10.852Z,4.95
2023-08-12T20:35:37.689Z,5.13
2023-08-12T20:38:04.798Z,4.28
2023-08-12T20:40:31.769Z,5.60
2023-08-12T20:42:59.139Z,4.68
2023-08-12T20:45:26.063Z,4.43
2023-08-12T20:47:53.185Z,5.15
2023-08-12T20:50:20.076Z,4.75
2023-08-12T20:52:47.030Z,4.38
2023-08-12T20:55:13.812Z,4.75
2023-08-12T20:57:40.720Z,5.47
2023-08-12T21:00:08.186Z,3.85
2023-08-12T21:02:35.111Z,5.90
2023-08-12T21:05:01.948Z,5.07
2023-08-12T21:07:28.700Z,6.90
2023-08-12T21:09:55.528Z,4.60
2023-08-12T21:12:22.788Z,5.55
2023-08-12T21:14:49.586Z,5.00
2023-08-12T21:17:16.396Z,5.85
2023-08-12T21:19:43.176Z,5.75
2023-08-12T21:22:10.005Z,4.05
2023-08-12T21:24:36.971Z,5.22
2023-08-12T21:27:04.104Z,5.43
2023-08-12T21:29:30.955Z,5.32
2023-08-12T21:31:57.729Z,5.50
2023-08-12T21:34:24.816Z,4.95
2023-08-12T21:36:51.979Z,5.10
2023-08-12T21:39:18.792Z,5.63
2023-08-12T21:41:45.611Z,5.93
2023-08-12T21:44:12.374Z,5.15
2023-08-12T21:46:39.348Z,5.22
2023-08-12T21:49:06.227Z,5.18
2023-08-12T21:51:33.081Z,5.00
2023-08-12T21:53:59.911Z,5.43
2023-08-12T21:56:29.526Z,5.15
2023-08-12T21:58:56.637Z,5.53
2023-08-12T22:01:23.568Z,5.22
2023-08-12T22:03:50.495Z,5.65
2023-08-12T22:06:18.434Z,4.95
2023-08-12T22:08:45.739Z,5.50
2023-08-12T22:11:12.501Z,5.45
2023-08-12T22:13:41.807Z,6.03
2023-08-12T22:16:08.707Z,5.50
2023-08-12T22:18:36.712Z,5.45
2023-08-12T22:21:04.637Z,5.38
2023-08-12T22:23:31.452Z,5.18
2023-08-12T22:25:58.214Z,5.10
2023-08-12T22:28:25.034Z,5.70
2023-08-12T22:30:53.591Z,5.70
2023-08-12T22:33:21.796Z,6.30
2023-08-12T22:35:48.694Z,6.97
2023-08-12T22:38:15.567Z,5.72
2023-08-12T22:40:42.383Z,5.88
2023-08-12T22:43:09.256Z,5.22
2023-08-12T22:45:42.001Z,5.65
2023-08-12T22:48:08.830Z,5.43
2023-08-12T22:50:37.802Z,6.00
2023-08-12T22:53:04.998Z,5.63
2023-08-12T22:55:31.962Z,5.20
2023-08-12T22:57:58.922Z,6.03
2023-08-12T23:00:25.723Z,6.47
2023-08-12T23:02:52.814Z,6.43
2023-08-12T23:05:19.678Z,7.70
2023-08-12T23:07:47.287Z,5.28
2023-08-12T23:10:14.324Z,6.32
2023-08-12T23:12:41.566Z,5.90
2023-08-12T23:15:09.281Z,5.28
2023-08-12T23:17:36.069Z,6.38
2023-08-12T23:20:04.594Z,6.28
2023-08-12T23:22:31.379Z,6.38
2023-08-12T23:25:00.709Z,5.43
2023-08-12T23:27:28.364Z,5.80
2023-08-12T23:29:55.582Z,6.10
2023-08-12T23:32:23.576Z,6.03
2023-08-12T23:34:50.513Z,6.28
2023-08-12T23:37:17.481Z,6.28
2023-08-12T23:39:44.481Z,6.25
2023-08-12T23:42:11.344Z,6.22
2023-08-12T23:44:38.127Z,5.55
2023-08-12T23:47:05.206Z,6.32
2023-08-12T23:49:32.016Z,5.57
2023-08-12T23:51:59.333Z,5.70
2023-08-12T23:54:26.294Z,5.38
2023-08-12T23:56:53.140Z,6.13
2023-08-12T23:59:19.920Z,5.43
